Terminal Aerodrome Forecast
Issued by NWS Springfield, MO

Home | Current Version | Previous Version | Text Only | Print | Product List | Glossary On
Versions: 1 2 3 4 5 6 7 8 9 10 11 12 13 14 15 16 17
000
FTUS43 KSGF 242152 AAA
TAFSGF
TAF AMD
KSGF 242152Z 2422/2518 17014G22KT 4SM -SHRA BKN080
      TEMPO 2422/2424 2SM TSRA OVC015CB
     FM250000 15013KT 3SM SHRA VCTS OVC015CB
     FM250400 16010KT P6SM SHRA VCTS OVC035CB
     FM250600 16009KT P6SM VCSH OVC040
     FM251200 16006KT 4SM -SHRA BKN015
     FM251400 21006KT 4SM -SHRA OVC030=

USA.gov is the U.S. government's official web portal to all federal, state and local government web resources and services.